Time;durP1;ratioP1;P1;durP2;ratioP2;P2;SDS_P1;SDS_P2;PMS_P1;PMS_P2;Temp;Humidity;BMP_temperature;BMP_pressure;BME280_temperature;BME280_humidity;BME280_pressure;Samples;Min_cycle;Max_cycle;Signal;HPM_P1;HPM_P2
2022/12/27 00:01:30;;;;;;;;;1.00;1.00;;;;;20.85;37.85;102216.34;4991988;28;45463;-46
2022/12/27 00:03:55;;;;;;;;;2.75;1.00;;;;;20.85;37.69;102216.34;4990764;28;45527;-43
2022/12/27 00:06:23;;;;;;;;;2.50;2.00;;;;;20.80;37.62;102213.88;4979201;28;46170;-42
2022/12/27 00:08:49;;;;;;;;;2.00;2.00;;;;;20.81;38.10;102220.84;4979176;28;45329;-42
2022/12/27 00:11:18;;;;;;;;;1.50;1.00;;;;;20.82;37.85;102224.34;4979123;28;45487;-42
2022/12/27 00:13:44;;;;;;;;;1.75;0.25;;;;;20.76;37.72;102216.66;4979166;28;45345;-45
2022/12/27 00:16:12;;;;;;;;;2.00;2.00;;;;;20.80;37.79;102226.16;4978556;28;46502;-42
2022/12/27 00:18:38;;;;;;;;;2.00;1.00;;;;;20.77;37.64;102226.28;4978461;28;45321;-42
2022/12/27 00:21:05;;;;;;;;;1.00;1.00;;;;;20.72;37.86;102223.78;4978726;28;45355;-42
2022/12/27 00:23:34;;;;;;;;;2.50;1.25;;;;;20.75;38.00;102230.75;4978904;28;45451;-44
2022/12/27 00:26:09;;;;;;;;;3.25;2.00;;;;;20.75;37.81;102233.38;4977385;28;46304;-42
2022/12/27 00:28:35;;;;;;;;;1.75;1.25;;;;;20.72;37.40;102226.41;4979104;28;45899;-42
2022/12/27 00:31:01;;;;;;;;;2.25;1.25;;;;;20.70;37.92;102231.72;4992073;28;45559;-44
2022/12/27 00:33:27;;;;;;;;;3.00;2.00;;;;;20.66;37.65;102227.47;5003260;28;44834;-43
2022/12/27 00:35:53;;;;;;;;;2.00;2.00;;;;;20.68;37.46;102236.16;4995171;28;45220;-43
2022/12/27 00:38:19;;;;;;;;;3.00;3.00;;;;;20.67;37.89;102230.97;4981214;28;45265;-43
2022/12/27 00:40:47;;;;;;;;;3.75;2.50;;;;;20.65;37.57;102233.66;4978624;28;45424;-44
2022/12/27 00:43:13;;;;;;;;;3.00;2.00;;;;;20.61;37.88;102228.56;4981050;28;45232;-48
2022/12/27 00:45:38;;;;;;;;;2.00;2.00;;;;;20.63;37.78;102231.97;4979594;28;45302;-43
2022/12/27 00:48:03;;;;;;;;;3.50;1.00;;;;;20.62;37.85;102230.25;4981666;28;45365;-43
2022/12/27 00:50:29;;;;;;;;;1.00;1.00;;;;;20.60;37.82;102234.72;4982717;28;45357;-43
2022/12/27 00:52:54;;;;;;;;;3.00;2.00;;;;;20.60;37.95;102238.22;4988645;28;45448;-42
2022/12/27 00:55:22;;;;;;;;;1.00;1.00;;;;;20.60;37.60;102242.63;4986270;28;52166;-44
2022/12/27 00:57:47;;;;;;;;;5.25;3.00;;;;;20.59;37.69;102238.28;4990003;28;45393;-43
2022/12/27 01:00:14;;;;;;;;;3.00;2.00;;;;;20.59;38.02;102240.91;4994994;28;59056;-46
2022/12/27 01:02:39;;;;;;;;;1.25;1.25;;;;;20.54;37.90;102238.44;4996965;28;45214;-43
2022/12/27 01:05:05;;;;;;;;;1.67;1.67;;;;;20.57;37.75;102245.34;4995944;28;66231;-43
2022/12/27 01:07:31;;;;;;;;;2.75;2.75;;;;;20.55;37.82;102254.16;4997064;28;45164;-45
2022/12/27 01:09:56;;;;;;;;;3.25;2.00;;;;;20.52;37.61;102248.16;4995421;28;45078;-43
2022/12/27 01:12:21;;;;;;;;;2.25;2.25;;;;;20.54;37.83;102259.50;4993877;28;45234;-45
2022/12/27 01:14:47;;;;;;;;;2.00;2.00;;;;;20.50;37.84;102250.84;4985665;28;47397;-43
2022/12/27 01:17:12;;;;;;;;;1.00;1.00;;;;;20.52;37.75;102253.41;4977945;28;51026;-43
2022/12/27 01:19:38;;;;;;;;;4.00;3.00;;;;;20.49;38.09;102248.25;4994527;28;56610;-43
2022/12/27 01:22:04;;;;;;;;;2.25;2.25;;;;;20.48;37.87;102244.75;4979456;28;45591;-46
2022/12/27 01:24:30;;;;;;;;;3.00;1.75;;;;;20.51;37.86;102255.16;4978366;28;46565;-43
2022/12/27 01:26:55;;;;;;;;;3.00;1.75;;;;;20.51;37.50;102260.44;4979298;28;45377;-45
2022/12/27 01:29:20;;;;;;;;;3.75;2.00;;;;;20.50;37.79;102258.75;4978917;28;47273;-45
2022/12/27 01:31:48;;;;;;;;;4.00;2.00;;;;;20.50;37.92;102261.38;4978828;28;45340;-45
2022/12/27 01:34:15;;;;;;;;;4.00;2.00;;;;;20.49;37.53;102257.03;4977410;28;45515;-43
2022/12/27 01:36:40;;;;;;;;;1.00;1.00;;;;;20.50;37.47;102257.88;4977429;28;45366;-45
2022/12/27 01:39:07;;;;;;;;;1.50;1.50;;;;;20.50;37.58;102255.22;4977504;28;45271;-43
2022/12/27 01:44:42;;;;;;;;;1.75;1.75;;;;;20.49;37.85;102261.41;4982947;28;45756;-43
2022/12/27 01:47:36;;;;;;;;;4.25;3.00;;;;;20.49;37.86;102264.03;4985866;28;45847;-43
2022/12/27 01:50:23;;;;;;;;;2.50;2.50;;;;;20.48;37.99;102267.59;4979819;28;45446;-44
2022/12/27 01:53:07;;;;;;;;;3.00;1.50;;;;;20.47;37.90;102263.22;4978838;28;45617;-43
2022/12/27 01:55:38;;;;;;;;;2.25;2.25;;;;;20.46;37.42;102265.00;4979613;28;47275;-44
2022/12/27 01:58:27;;;;;;;;;3.75;1.75;;;;;20.45;37.33;102271.19;4976914;28;45710;-43
2022/12/27 02:00:52;;;;;;;;;1.25;1.25;;;;;20.45;37.54;102275.59;4977652;28;45483;-43
2022/12/27 02:03:25;;;;;;;;;1.50;1.25;;;;;20.45;37.92;102272.97;4977325;28;45578;-44
2022/12/27 02:05:52;;;;;;;;;2.00;2.00;;;;;20.41;37.71;102271.34;4977287;28;47308;-43
2022/12/27 02:08:36;;;;;;;;;1.25;1.25;;;;;20.44;37.47;102281.78;4977285;28;45881;-43
2022/12/27 02:11:02;;;;;;;;;1.50;1.50;;;;;20.41;37.94;102280.09;4978837;28;45943;-43
2022/12/27 02:13:32;;;;;;;;;1.00;1.00;;;;;20.41;37.63;102282.72;4977589;28;45461;-43
2022/12/27 02:15:58;;;;;;;;;2.75;2.00;;;;;20.35;37.93;102275.88;4976839;28;45317;-44
2022/12/27 02:18:23;;;;;;;;;3.75;2.25;;;;;20.40;37.85;102294.16;4977151;28;45250;-46
2022/12/27 02:21:10;;;;;;;;;1.25;1.25;;;;;20.39;37.92;102287.19;4975872;28;45448;-42
2022/12/27 02:24:03;;;;;;;;;4.00;2.00;;;;;20.35;37.87;102280.28;4977630;28;45396;-43
2022/12/27 02:26:47;;;;;;;;;2.00;2.00;;;;;20.36;38.00;102288.13;4979684;28;47597;-43
2022/12/27 02:29:45;;;;;;;;;3.75;2.75;;;;;20.36;37.93;102280.22;4986969;28;45354;-44
2022/12/27 02:32:17;;;;;;;;;1.75;1.75;;;;;20.32;37.51;102270.72;4984072;28;45308;-43
2022/12/27 02:35:17;;;;;;;;;2.00;2.00;;;;;20.31;37.74;102274.25;4988279;28;45461;-43
2022/12/27 02:38:05;;;;;;;;;2.00;2.00;;;;;20.35;37.76;102275.88;4985881;28;49764;-45
2022/12/27 02:55:15;;;;;;;;;2.00;2.00;;;;;20.30;37.93;102272.53;4979922;28;45428;-43
2022/12/27 02:58:04;;;;;;;;;1.00;1.00;;;;;20.26;37.90;102263.00;4993399;28;45365;-43
2022/12/27 03:04:08;;;;;;;;;4.25;3.00;;;;;20.27;38.01;102288.44;4997088;28;45165;-43
2022/12/27 03:07:06;;;;;;;;;2.50;1.75;;;;;20.26;37.56;102286.69;4980094;28;45349;-45
2022/12/27 03:15:55;;;;;;;;;3.25;2.00;;;;;20.23;37.72;102292.06;4979624;28;45748;-43
2022/12/27 03:18:23;;;;;;;;;2.00;2.00;;;;;20.22;37.96;102285.94;4979778;28;45406;-42
2022/12/27 03:26:25;;;;;;;;;3.25;1.75;;;;;20.20;38.10;102279.84;4980916;28;45329;-42
2022/12/27 03:34:38;;;;;;;;;3.00;2.00;;;;;20.17;37.56;102292.25;4986805;28;45976;-42
2022/12/27 03:40:21;;;;;;;;;3.75;2.00;;;;;20.16;38.07;102296.66;4982904;28;45826;-46
2022/12/27 03:43:11;;;;;;;;;3.00;2.25;;;;;20.17;37.62;102308.03;4983109;28;45707;-42
2022/12/27 03:48:50;;;;;;;;;1.00;1.00;;;;;20.15;37.87;102300.22;4979237;28;45936;-43
2022/12/27 03:51:20;;;;;;;;;1.25;1.25;;;;;20.14;37.69;102309.00;4983755;28;45255;-43
2022/12/27 03:53:49;;;;;;;;;3.00;1.00;;;;;20.14;37.53;102298.47;4983295;28;45537;-43
2022/12/27 03:56:16;;;;;;;;;2.50;2.00;;;;;20.14;37.60;102300.22;4980291;28;46213;-43
2022/12/27 03:58:41;;;;;;;;;1.00;1.00;;;;;20.12;37.44;102291.56;4980354;28;45326;-43
2022/12/27 04:01:06;;;;;;;;;2.00;1.00;;;;;20.14;37.49;102292.34;4994357;28;45427;-44
2022/12/27 04:03:31;;;;;;;;;2.50;2.50;;;;;20.15;37.42;102299.34;4991052;28;45317;-43
2022/12/27 04:05:57;;;;;;;;;1.00;1.00;;;;;20.12;37.38;102296.81;4978961;28;49036;-46
2022/12/27 04:35:41;;;;;;;;;3.00;3.00;;;;;20.08;37.69;102303.91;4991531;28;45238;-46
2022/12/27 04:38:07;;;;;;;;;3.75;2.00;;;;;20.07;37.90;102302.19;4982403;28;50812;-43
2022/12/27 04:57:06;;;;;;;;;1.50;1.50;;;;;20.05;37.94;102296.97;4980071;28;45589;-45
2022/12/27 05:02:18;;;;;;;;;2.00;2.00;;;;;20.03;37.95;102288.25;4978696;28;45432;-44
2022/12/27 05:04:45;;;;;;;;;3.25;1.50;;;;;20.04;38.14;102287.34;4979424;28;45433;-43
2022/12/27 05:15:28;;;;;;;;;2.00;2.00;;;;;20.02;37.99;102291.81;4979058;28;45290;-43
2022/12/27 05:17:55;;;;;;;;;2.00;2.00;;;;;20.03;37.56;102290.06;4982332;28;50754;-42
2022/12/27 05:20:20;;;;;;;;;2.00;1.25;;;;;20.02;37.87;102289.16;4986894;28;45344;-43
2022/12/27 05:25:37;;;;;;;;;1.75;1.00;;;;;20.00;37.48;102283.13;4980131;28;45507;-42
2022/12/27 05:28:05;;;;;;;;;3.00;2.00;;;;;19.97;38.03;102280.56;4978973;28;45241;-44
2022/12/27 05:30:39;;;;;;;;;2.25;2.25;;;;;20.01;37.59;102292.72;4978781;28;46593;-44
2022/12/27 05:33:05;;;;;;;;;2.25;1.75;;;;;20.00;38.18;102288.38;4982903;28;45860;-42
2022/12/27 05:35:32;;;;;;;;;4.00;1.00;;;;;19.96;38.35;102289.38;4994348;28;45281;-44
2022/12/27 05:37:57;;;;;;;;;2.75;2.00;;;;;19.95;38.02;102282.38;4996286;28;45425;-42
2022/12/27 05:40:24;;;;;;;;;2.00;2.00;;;;;19.99;37.92;102288.41;4982921;28;53707;-48
2022/12/27 05:42:49;;;;;;;;;1.00;1.00;;;;;19.98;38.23;102287.56;4980049;28;45411;-43
2022/12/27 05:45:15;;;;;;;;;1.75;1.25;;;;;19.98;38.24;102290.19;4981104;28;45274;-45
2022/12/27 05:47:41;;;;;;;;;2.00;1.25;;;;;19.97;37.85;102295.47;4978645;28;45618;-47
2022/12/27 05:50:07;;;;;;;;;2.00;2.00;;;;;19.92;38.04;102287.72;4977391;28;45341;-44
2022/12/27 05:52:32;;;;;;;;;1.50;1.00;;;;;19.97;37.59;102290.22;4977202;28;45691;-43
2022/12/27 05:54:58;;;;;;;;;0.50;0.50;;;;;19.96;37.61;102293.75;4977765;28;45417;-43
2022/12/27 05:57:23;;;;;;;;;2.00;2.00;;;;;19.96;37.72;102285.84;4978072;28;45411;-43
2022/12/27 05:59:48;;;;;;;;;4.75;2.50;;;;;19.96;38.05;102285.84;4977236;28;46306;-43
2022/12/27 06:02:14;;;;;;;;;2.00;2.00;;;;;19.95;37.76;102276.25;4976859;28;46664;-44
2022/12/27 06:04:39;;;;;;;;;2.00;2.00;;;;;19.95;37.75;102265.75;4977514;28;45367;-43
2022/12/27 06:07:04;;;;;;;;;1.75;1.00;;;;;19.93;37.92;102264.00;4977021;28;47873;-43
2022/12/27 06:09:30;;;;;;;;;2.00;1.00;;;;;19.93;37.73;102258.75;4979264;28;50517;-42
2022/12/27 06:11:55;;;;;;;;;1.75;1.00;;;;;19.92;37.81;102266.66;4977944;28;45514;-45
2022/12/27 06:14:20;;;;;;;;;1.00;1.00;;;;;19.92;37.83;102266.66;4984266;28;45286;-45
2022/12/27 06:16:46;;;;;;;;;1.00;1.00;;;;;19.92;37.60;102267.56;4985220;28;45498;-42
2022/12/27 06:19:11;;;;;;;;;1.00;1.00;;;;;19.89;38.00;102264.16;4981266;28;50132;-41
2022/12/27 06:21:36;;;;;;;;;2.00;2.00;;;;;19.87;38.19;102258.06;4978373;28;45314;-44
2022/12/27 06:24:02;;;;;;;;;1.00;1.00;;;;;19.91;37.78;102271.09;4978042;28;45428;-42
2022/12/27 06:26:28;;;;;;;;;2.00;2.00;;;;;19.90;38.22;102269.34;4977976;28;45298;-42
2022/12/27 06:28:55;;;;;;;;;2.75;1.75;;;;;19.86;38.10;102265.09;4983828;28;46034;-42
2022/12/27 06:31:22;;;;;;;;;1.00;1.00;;;;;19.90;37.80;102269.34;4991045;28;45245;-44
2022/12/27 06:33:49;;;;;;;;;2.00;2.00;;;;;19.89;37.86;102264.16;4989243;28;45415;-47
2022/12/27 06:36:19;;;;;;;;;1.75;1.75;;;;;19.90;38.01;102269.34;4977840;28;45316;-45
2022/12/27 06:38:46;;;;;;;;;2.00;2.00;;;;;19.88;37.87;102265.06;4982586;28;45469;-42
2022/12/27 06:41:13;;;;;;;;;2.25;1.00;;;;;19.88;37.86;102265.06;4981925;28;45672;-42
2022/12/27 06:43:39;;;;;;;;;4.00;2.00;;;;;19.87;37.88;102273.84;4980572;28;45238;-42
2022/12/27 06:46:08;;;;;;;;;3.00;2.50;;;;;19.88;38.13;102275.59;4980952;28;45575;-41
2022/12/27 06:48:34;;;;;;;;;5.25;2.00;;;;;19.79;38.12;102258.25;4980812;28;46334;-46
2022/12/27 06:51:05;;;;;;;;;1.75;1.75;;;;;19.86;38.04;102267.72;4980704;28;45828;-43
2022/12/27 06:53:30;;;;;;;;;1.00;1.00;;;;;19.83;38.04;102259.03;4991213;28;45326;-42
2022/12/27 06:55:55;;;;;;;;;1.00;0.00;;;;;19.84;38.20;102261.63;5000543;28;44854;-44
2022/12/27 06:58:21;;;;;;;;;1.25;1.25;;;;;19.86;37.76;102266.88;4979964;28;45376;-42
2022/12/27 07:00:46;;;;;;;;;1.50;1.50;;;;;19.86;37.56;102266.88;4979776;28;60515;-45
2022/12/27 07:03:11;;;;;;;;;2.00;2.00;;;;;19.82;37.90;102254.66;4983872;28;45436;-43
2022/12/27 07:05:37;;;;;;;;;1.25;1.25;;;;;19.85;38.31;102255.44;4996686;28;44830;-44
2022/12/27 07:08:02;;;;;;;;;2.50;2.50;;;;;19.86;37.44;102272.13;4984240;28;45496;-47
2022/12/27 07:10:28;;;;;;;;;2.25;2.00;;;;;19.87;37.82;102266.81;4988244;28;45372;-45
2022/12/27 07:12:55;;;;;;;;;2.00;2.00;;;;;19.90;37.84;102272.00;4991591;28;45254;-43
2022/12/27 07:15:20;;;;;;;;;2.00;2.00;;;;;19.91;38.34;102265.81;4985042;28;45383;-42
2022/12/27 07:17:45;;;;;;;;;2.25;2.00;;;;;19.96;38.35;102268.31;4987982;28;45283;-43
2022/12/27 07:20:11;;;;;;;;;2.00;2.00;;;;;20.03;38.14;102271.63;4998194;28;45229;-42
2022/12/27 07:22:36;;;;;;;;;1.00;1.00;;;;;20.04;38.31;102281.25;4988685;28;45207;-42
2022/12/27 07:25:02;;;;;;;;;2.00;2.00;;;;;20.10;38.16;102291.56;4988416;28;45226;-42
2022/12/27 07:27:27;;;;;;;;;2.25;2.25;;;;;20.14;37.68;102287.06;4986707;28;46325;-42
2022/12/27 07:29:52;;;;;;;;;2.00;2.00;;;;;20.17;38.04;102282.59;4981799;28;45476;-42
2022/12/27 07:32:18;;;;;;;;;2.00;1.75;;;;;20.20;37.87;102287.75;4979640;28;50547;-48
2022/12/27 07:34:43;;;;;;;;;6.50;2.75;;;;;20.22;37.82;102295.63;4980107;28;45469;-42
2022/12/27 07:37:08;;;;;;;;;4.67;2.33;;;;;20.24;37.65;102291.16;4980630;28;46153;-45
2022/12/27 07:39:34;;;;;;;;;2.25;2.25;;;;;20.28;37.61;102294.56;4979758;28;45228;-45
2022/12/27 07:41:59;;;;;;;;;2.67;2.67;;;;;20.29;37.84;102302.41;4978741;28;60207;-44
2022/12/27 07:44:24;;;;;;;;;3.00;3.00;;;;;20.31;37.72;102283.91;4998271;28;44898;-47
2022/12/27 07:46:50;;;;;;;;;4.00;4.00;;;;;20.32;38.00;102286.53;4997730;28;56975;-43
2022/12/27 07:49:15;;;;;;;;;6.00;3.00;;;;;20.34;37.56;102286.47;4999563;28;44875;-43
2022/12/27 07:51:40;;;;;;;;;4.25;4.25;;;;;20.35;37.92;102289.03;4998114;28;45571;-47
2022/12/27 07:54:06;;;;;;;;;6.75;6.00;;;;;20.35;37.33;102281.13;4997256;28;45360;-45
2022/12/27 07:56:31;;;;;;;;;9.25;7.75;;;;;20.42;37.14;102299.41;4998661;28;46042;-43
2022/12/27 07:58:58;;;;;;;;;5.50;5.50;;;;;20.45;37.73;102296.66;4983425;28;46076;-47
2022/12/27 08:01:26;;;;;;;;;4.50;4.25;;;;;20.46;37.46;102290.47;4980676;28;45437;-45
2022/12/27 08:03:51;;;;;;;;;6.25;6.25;;;;;20.48;37.24;102291.28;4982360;28;45284;-42
2022/12/27 08:06:25;;;;;;;;;6.75;6.00;;;;;20.50;37.23;102292.97;4989759;28;47390;-44
2022/12/27 08:08:52;;;;;;;;;3.75;3.00;;;;;20.48;37.58;102283.38;4994365;28;45751;-46
2022/12/27 08:11:18;;;;;;;;;5.25;5.25;;;;;20.50;37.00;102289.47;4994453;28;45242;-42
2022/12/27 08:13:43;;;;;;;;;6.00;6.00;;;;;20.54;37.22;102293.75;4997954;28;45170;-50
2022/12/27 08:16:15;;;;;;;;;7.75;6.00;;;;;20.55;37.03;102292.84;4993107;28;45002;-44
2022/12/27 08:18:41;;;;;;;;;4.00;4.00;;;;;20.58;37.76;102297.13;4969566;28;45711;-49
2022/12/27 08:21:06;;;;;;;;;4.50;4.00;;;;;20.61;37.50;102302.31;4966715;28;45195;-42
2022/12/27 08:23:31;;;;;;;;;6.67;5.00;;;;;20.60;37.05;102293.53;4982338;28;47302;-42
2022/12/27 08:25:57;;;;;;;;;4.33;4.33;;;;;20.61;37.27;102289.13;4977953;28;56948;-45
2022/12/27 08:28:23;;;;;;;;;4.00;4.00;;;;;20.64;37.17;102294.28;4971693;28;44757;-42
2022/12/27 08:30:48;;;;;;;;;4.25;4.00;;;;;20.68;36.98;102302.03;4966756;28;45240;-42
2022/12/27 08:33:16;;;;;;;;;4.25;3.75;;;;;20.70;37.15;102307.28;4968203;28;45433;-45
2022/12/27 08:35:44;;;;;;;;;4.25;3.25;;;;;20.69;37.40;102298.50;4970760;28;46170;-42
2022/12/27 08:38:09;;;;;;;;;4.25;3.75;;;;;20.74;37.39;102308.03;4970098;28;45188;-42
2022/12/27 08:40:39;;;;;;;;;3.00;3.00;;;;;20.72;36.97;102304.56;4967858;28;45293;-43
2022/12/27 08:43:04;;;;;;;;;5.25;4.00;;;;;20.78;37.12;102314.97;4965056;28;45140;-42
2022/12/27 08:45:29;;;;;;;;;3.75;3.75;;;;;20.77;37.26;102314.09;4963755;28;46230;-42
2022/12/27 08:47:58;;;;;;;;;3.00;3.00;;;;;20.79;37.41;102316.66;4964761;28;45244;-42
2022/12/27 08:50:23;;;;;;;;;3.75;3.00;;;;;20.81;37.29;102314.84;4964021;28;45369;-44
2022/12/27 08:52:49;;;;;;;;;5.00;3.75;;;;;20.79;37.02;102311.38;4962448;28;45317;-42
2022/12/27 08:55:14;;;;;;;;;3.25;3.00;;;;;20.83;37.30;102316.53;4963518;28;46135;-46
2022/12/27 08:57:39;;;;;;;;;4.00;3.00;;;;;20.86;37.07;102318.19;4964869;28;53109;-43
2022/12/27 09:00:05;;;;;;;;;5.75;3.00;;;;;20.85;37.03;102319.97;4979476;28;45942;-45
2022/12/27 09:02:31;;;;;;;;;4.25;3.25;;;;;20.86;37.00;102326.09;4974375;28;45330;-46
2022/12/27 09:04:56;;;;;;;;;4.00;4.00;;;;;20.87;37.01;102326.94;4966218;28;46277;-43
2022/12/27 09:07:21;;;;;;;;;3.50;3.50;;;;;20.82;36.74;102324.47;4962137;28;45366;-43
2022/12/27 09:09:46;;;;;;;;;4.25;3.00;;;;;20.87;36.65;102340.13;4958550;28;45390;-44
2022/12/27 09:12:12;;;;;;;;;5.67;4.00;;;;;20.87;37.26;102334.84;4965270;28;56625;-43
2022/12/27 09:14:37;;;;;;;;;3.00;3.00;;;;;20.86;37.30;102334.00;4973530;28;59132;-43
2022/12/27 09:17:04;;;;;;;;;4.00;4.00;;;;;20.86;37.06;102328.75;4959198;28;50943;-44
2022/12/27 09:19:30;;;;;;;;;2.25;2.25;;;;;20.88;36.67;102331.31;4962076;28;45472;-43
2022/12/27 09:22:07;;;;;;;;;4.00;3.00;;;;;20.87;37.13;102329.59;5069976;28;45357;-53
2022/12/27 09:24:32;;;;;;;;;3.25;2.50;;;;;20.88;37.18;102337.47;5052756;28;45485;-54
2022/12/27 09:26:57;;;;;;;;;4.00;2.50;;;;;20.91;36.92;102331.22;5052713;28;46901;-54
2022/12/27 09:29:23;;;;;;;;;3.50;2.50;;;;;20.89;37.06;102322.50;5053088;28;45521;-53
2022/12/27 09:31:48;;;;;;;;;7.00;3.00;;;;;20.91;37.07;102333.84;5053126;28;47131;-49
2022/12/27 09:34:13;;;;;;;;;3.50;3.25;;;;;20.88;37.14;102326.91;5052735;28;45208;-50
2022/12/27 09:36:39;;;;;;;;;3.00;3.00;;;;;20.83;36.51;102334.97;5052174;28;51467;-52
2022/12/27 09:39:04;;;;;;;;;4.00;4.00;;;;;20.92;37.13;102338.22;5052574;28;45363;-49
2022/12/27 09:41:45;;;;;;;;;4.25;4.25;;;;;20.91;37.18;102342.63;5052351;28;46224;-49
2022/12/27 09:44:19;;;;;;;;;3.50;3.25;;;;;20.91;36.97;102344.41;5052646;28;45849;-52
2022/12/27 09:47:07;;;;;;;;;3.25;3.00;;;;;20.91;36.66;102349.66;5053047;28;45260;-54
2022/12/27 09:49:37;;;;;;;;;3.00;3.00;;;;;20.91;36.91;102352.31;5053069;28;45341;-49
2022/12/27 09:52:25;;;;;;;;;3.00;3.00;;;;;20.91;36.71;102347.88;5052398;28;46484;-51
2022/12/27 09:55:20;;;;;;;;;4.00;3.25;;;;;20.89;37.13;102354.97;5052610;28;45885;-53
2022/12/27 09:57:47;;;;;;;;;3.00;3.00;;;;;20.86;36.73;102349.81;5052778;28;45357;-54
2022/12/27 10:00:19;;;;;;;;;5.00;3.00;;;;;20.83;37.03;102352.56;5051389;28;45650;-51
2022/12/27 10:02:47;;;;;;;;;6.00;4.25;;;;;20.77;36.67;102340.44;5052394;28;46281;-49
2022/12/27 10:05:22;;;;;;;;;3.75;3.00;;;;;20.77;36.98;102347.50;5052465;28;45399;-52
2022/12/27 10:08:19;;;;;;;;;5.75;3.25;;;;;20.72;36.73;102341.47;5052481;28;45439;-54
2022/12/27 10:11:06;;;;;;;;;3.25;3.00;;;;;20.54;37.14;102309.53;5052706;28;45207;-52
2022/12/27 10:13:46;;;;;;;;;3.00;3.00;;;;;20.65;37.02;102330.25;5052292;28;46047;-54
2022/12/27 10:16:41;;;;;;;;;3.00;3.00;;;;;20.63;36.97;102327.69;5052288;28;45924;-52
2022/12/27 10:19:25;;;;;;;;;4.25;3.00;;;;;20.58;37.30;102320.84;5043341;28;45356;-50
2022/12/27 10:21:59;;;;;;;;;6.00;4.00;;;;;20.58;36.61;102319.06;5070837;28;45362;-49
2022/12/27 10:24:53;;;;;;;;;7.00;5.25;;;;;20.51;36.05;102317.53;5072476;28;45362;-53
2022/12/27 10:27:22;;;;;;;;;8.25;5.00;;;;;20.44;36.10;102321.28;5069011;28;45918;-51
2022/12/27 10:29:51;;;;;;;;;5.00;5.00;;;;;20.41;36.14;102329.28;5072473;28;45312;-50
2022/12/27 10:32:17;;;;;;;;;7.00;4.00;;;;;20.36;35.96;102330.25;5065349;28;45213;-50
2022/12/27 10:34:42;;;;;;;;;6.00;4.00;;;;;20.33;35.88;102317.22;5058670;28;46051;-50
2022/12/27 10:37:16;;;;;;;;;4.25;4.25;;;;;20.27;35.89;102320.03;5058673;28;45358;-51
2022/12/27 10:39:42;;;;;;;;;4.00;3.75;;;;;20.22;35.36;102314.06;5039896;28;51964;-50
2022/12/27 10:42:33;;;;;;;;;9.50;6.25;;;;;20.15;35.13;102309.84;5058972;28;45326;-55
2022/12/27 10:45:24;;;;;;;;;6.50;5.75;;;;;20.14;35.60;102313.41;5058315;28;46198;-58
2022/12/27 10:47:51;;;;;;;;;6.00;6.00;;;;;20.10;35.41;102314.41;5058958;28;45337;-52
2022/12/27 10:50:21;;;;;;;;;6.75;6.00;;;;;20.07;35.26;102313.59;5058670;28;45334;-52
2022/12/27 10:52:46;;;;;;;;;5.75;5.75;;;;;20.05;35.47;102315.41;5058851;28;45585;-51
2022/12/27 10:55:34;;;;;;;;;6.25;4.25;;;;;20.03;35.39;102316.38;5058323;28;46136;-51
2022/12/27 10:58:19;;;;;;;;;8.75;6.50;;;;;20.00;35.47;102312.06;5057981;28;45394;-51
2022/12/27 11:00:56;;;;;;;;;5.00;3.50;;;;;19.98;35.07;102313.88;5040269;28;45255;-50
2022/12/27 11:03:21;;;;;;;;;4.75;4.75;;;;;19.95;35.31;102328.91;5041068;28;45371;-50
2022/12/27 11:06:03;;;;;;;;;5.25;5.25;;;;;19.92;35.04;102319.28;5058203;28;46382;-55
2022/12/27 11:08:29;;;;;;;;;5.25;5.25;;;;;19.88;34.95;102315.91;5058445;28;45960;-52
2022/12/27 11:11:12;;;;;;;;;3.00;2.00;;;;;19.89;35.20;102314.16;5040674;28;45338;-52
2022/12/27 11:13:37;;;;;;;;;4.25;4.25;;;;;19.87;35.08;102305.44;5058406;28;45421;-49
2022/12/27 11:16:03;;;;;;;;;5.50;4.00;;;;;19.85;35.02;102310.69;5057979;28;46247;-52
2022/12/27 11:18:33;;;;;;;;;5.25;5.00;;;;;19.80;35.01;102301.19;5057942;28;45541;-50
2022/12/27 11:20:59;;;;;;;;;6.50;4.00;;;;;19.82;35.20;102307.28;5057850;28;45270;-52
2022/12/27 11:23:34;;;;;;;;;5.50;5.00;;;;;19.80;35.06;102294.19;5058524;28;45244;-50
2022/12/27 11:26:05;;;;;;;;;5.00;5.00;;;;;19.74;35.10;102276.81;5058005;28;46168;-50
2022/12/27 11:28:33;;;;;;;;;6.75;5.00;;;;;19.77;34.78;102279.38;5057853;28;45396;-50
2022/12/27 11:31:07;;;;;;;;;5.00;4.00;;;;;19.75;34.70;102268.03;5057712;28;46937;-51
2022/12/27 11:33:44;;;;;;;;;4.75;4.00;;;;;19.74;34.90;102262.78;5058350;28;45328;-52
2022/12/27 11:36:11;;;;;;;;;5.00;5.00;;;;;19.72;34.61;102254.94;5057827;28;46277;-55
2022/12/27 11:38:38;;;;;;;;;5.50;5.00;;;;;19.70;34.99;102251.50;5057731;28;46221;-57
2022/12/27 11:41:14;;;;;;;;;5.25;5.00;;;;;19.66;34.85;102234.09;5057808;28;45386;-56
2022/12/27 11:43:56;;;;;;;;;4.75;4.25;;;;;19.68;34.63;102231.41;5056949;28;45375;-59
2022/12/27 11:46:30;;;;;;;;;5.00;5.00;;;;;19.65;34.86;102231.50;5057659;28;45258;-49
2022/12/27 11:48:57;;;;;;;;;5.75;4.50;;;;;19.63;34.81;102235.03;5058034;28;45336;-49
2022/12/27 11:51:45;;;;;;;;;6.25;4.75;;;;;19.59;34.50;102243.94;5057816;28;45224;-48
2022/12/27 11:54:38;;;;;;;;;5.50;4.00;;;;;19.56;34.63;102235.28;5039796;28;45394;-51
2022/12/27 11:57:09;;;;;;;;;5.75;3.25;;;;;19.52;34.96;102233.63;5057472;28;46117;-51
2022/12/27 11:59:54;;;;;;;;;5.25;5.25;;;;;19.46;34.78;102238.13;5057599;28;45861;-48
2022/12/27 12:02:36;;;;;;;;;5.75;5.00;;;;;19.47;34.93;102247.75;5057052;28;45538;-49
2022/12/27 12:05:04;;;;;;;;;5.50;5.50;;;;;19.46;34.96;102240.78;5057750;28;45353;-48
2022/12/27 12:07:44;;;;;;;;;6.25;5.00;;;;;19.46;35.08;102232.88;5057347;28;46364;-50
2022/12/27 12:10:31;;;;;;;;;3.75;3.75;;;;;19.46;34.68;102237.28;5057532;28;45985;-53
2022/12/27 12:12:56;;;;;;;;;4.00;4.00;;;;;19.47;34.82;102237.25;5039700;28;45427;-57
2022/12/27 12:15:43;;;;;;;;;6.00;4.00;;;;;19.46;34.89;102232.88;5057425;28;45589;-50
2022/12/27 12:18:27;;;;;;;;;5.00;3.25;;;;;19.45;34.56;102228.56;5057048;28;45387;-52
2022/12/27 12:21:22;;;;;;;;;8.50;4.75;;;;;19.41;34.40;102226.03;5056943;28;45356;-51
2022/12/27 12:24:12;;;;;;;;;3.75;3.00;;;;;19.42;34.42;102231.25;5056928;28;45412;-50
2022/12/27 12:26:49;;;;;;;;;4.50;4.00;;;;;19.41;34.76;102232.16;5057265;28;45232;-50
2022/12/27 12:29:52;;;;;;;;;3.00;3.00;;;;;19.46;34.38;102232.88;5056995;28;45449;-51
2022/12/27 12:32:49;;;;;;;;;6.00;4.00;;;;;19.45;34.50;102215.41;5056964;28;45256;-52
2022/12/27 12:35:23;;;;;;;;;3.00;3.00;;;;;19.44;34.58;102212.81;5055171;28;45333;-49
2022/12/27 12:38:18;;;;;;;;;2.75;2.75;;;;;19.40;34.60;102196.25;5057094;28;45501;-51
2022/12/27 12:41:02;;;;;;;;;3.00;3.00;;;;;19.44;34.52;102197.91;5053479;28;46008;-53
2022/12/27 12:43:45;;;;;;;;;6.50;4.00;;;;;19.52;34.11;102194.19;5057160;28;45687;-52
2022/12/27 12:46:30;;;;;;;;;4.00;2.00;;;;;19.57;34.60;102179.09;5057112;28;45238;-52
2022/12/27 12:48:59;;;;;;;;;2.00;2.00;;;;;19.61;34.33;102184.25;5057146;28;45228;-49
2022/12/27 12:51:57;;;;;;;;;3.75;3.75;;;;;19.67;34.16;102183.22;5056756;28;45877;-49
2022/12/27 12:55:00;;;;;;;;;5.00;3.50;;;;;19.72;34.12;102175.19;5056700;28;45446;-50
2022/12/27 12:58:04;;;;;;;;;4.25;2.75;;;;;19.76;34.24;102171.53;5056799;28;45358;-50
2022/12/27 13:01:17;;;;;;;;;3.50;3.00;;;;;19.81;33.95;102168.75;5038956;28;45371;-52
2022/12/27 13:04:04;;;;;;;;;2.25;2.25;;;;;19.83;34.30;102159.94;4980023;28;46204;-50
2022/12/27 13:07:03;;;;;;;;;4.75;2.00;;;;;19.87;33.72;102169.47;5056743;28;45404;-50
2022/12/27 13:09:49;;;;;;;;;6.50;3.00;;;;;19.86;33.86;102151.94;5056766;28;45402;-50
2022/12/27 13:12:49;;;;;;;;;2.75;2.00;;;;;19.95;33.84;102156.06;5056476;28;45394;-50
2022/12/27 13:15:27;;;;;;;;;3.50;2.00;;;;;19.96;33.82;102147.25;5056234;28;46353;-51
2022/12/27 13:18:20;;;;;;;;;2.75;2.75;;;;;20.02;33.59;102147.06;5056652;28;45741;-50
2022/12/27 13:21:06;;;;;;;;;2.00;2.00;;;;;20.04;33.66;102155.75;5009963;28;45498;-50
2022/12/27 13:24:26;;;;;;;;;0.25;0.00;;;;;20.06;33.48;102142.56;5057045;28;45315;-49
2022/12/27 13:27:04;;;;;;;;;4.00;2.00;;;;;20.07;33.49;102145.16;4955004;28;45316;-50
2022/12/27 13:29:52;;;;;;;;;2.00;2.00;;;;;20.10;33.43;102143.34;5043773;28;45915;-53